• Join FlightAware (Why Join?)
  • Login
  • US Flag 
02:41AM EDT


 

Airport Tracker/Info


-or-


 

Live Flight TrackerFlight Track Log ✈ DAL268 ✈ 18-Aug-2013 ✈ KJFK - LLBG / TLV

Flight Track Log - Related Links

Times and Time Zones

All times are in EDT time to prevent confusion due to time zone crossing. See the DAL268 flight status page for this flight to view local times or setup timezone preferences in your user account.

Time Position Orientation Groundspeed Altitude Reporting Facility
EDT Latitude Longitude Course Direction KTS MPH feet Rate Location/Type
12:17AM 40.6440 -73.8060 143° Southeast 105 121  Level FlightAware
12:18AM 40.6370 -73.7910 122° Southeast 165 190 540 Level FlightAware
12:18AM 40.6260 -73.7680 122° Southeast 179 206 400 1,080 Climbing FlightAware
12:18AM 40.6160 -73.7510 128° Southeast 183 211 800 1,380 Climbing FlightAware
12:19AM 40.6040 -73.7380 141° Southeast 189 217 1,300 1,140 Climbing FlightAware
12:19AM 40.5920 -73.7230 136° Southeast 204 235 1,500 540 Climbing FlightAware
12:19AM 40.5900 -73.7170 114° Southeast 211 243 1,500 480 Level FlightAware
12:19AM 40.5880 -73.7070 105° East 220 253 1,600 840 Climbing FlightAware
12:19AM 40.5860 -73.6790 95° East 238 274 1,900 660 Climbing FlightAware
12:20AM 40.5890 -73.6430 84° East 256 295 2,100 660 Climbing FlightAware
12:20AM 40.5950 -73.6100 77° East 273 314 2,400 1,080 Climbing FlightAware
12:20AM 40.5970 -73.5920 82° East 280 322 2,700 1,680 Climbing FlightAware
12:21AM 40.6040 -73.5510 77° East 286 329 3,400 1,980 Climbing FlightAware
12:21AM 40.6060 -73.5300 83° East 289 333 3,900 2,640 Climbing FlightAware
12:21AM 40.6020 -73.4880 97° East 298 343 5,100 2,640 Climbing FlightAware
12:22AM 40.5960 -73.4710 115° Southeast 301 346 5,500 2,400 Climbing FlightAware
12:22AM 40.5830 -73.4390 118° Southeast 308 354 6,300 2,640 Climbing FlightAware
12:22AM 40.5748 -73.4195 119° Southeast 311 358 6,800 3,240 Climbing FlightAware ADS-B
12:22AM 40.5636 -73.3936 120° Southeast 313 360 7,600 2,760 Climbing FlightAware ADS-B
12:23AM 40.5529 -73.3687 119° Southeast 315 362 8,200 2,460 Climbing FlightAware ADS-B
12:23AM 40.5419 -73.3431 119° Southeast 316 364 8,900 2,700 Climbing FlightAware ADS-B
12:23AM 40.5306 -73.3168 119° Southeast 318 366 9,600 2,040 Climbing FlightAware ADS-B
12:24AM 40.5069 -73.2615 119° Southeast 340 391 10,500 1,320 Climbing FlightAware ADS-B
12:24AM 40.4822 -73.2036 119° Southeast 371 427 11,000 900 Climbing FlightAware ADS-B
12:24AM 40.4774 -73.1888 113° Southeast 380 437 11,100 900 Climbing FlightAware ADS-B
12:24AM 40.4740 -73.1733 106° East 388 447 11,200 900 Climbing FlightAware ADS-B
12:24AM 40.4721 -73.1583 99° East 393 452 11,300 960 Climbing FlightAware ADS-B
12:25AM 40.4726 -73.1140 89° East 409 471 11,600 1,020 Climbing FlightAware ADS-B
12:25AM 40.4769 -73.0887 77° East 418 481 11,800 1,320 Climbing FlightAware ADS-B
12:25AM 40.4825 -73.0704 68° East 421 484 12,000 1,500 Climbing FlightAware ADS-B
12:25AM 40.4862 -73.0612 62° Northeast 423 487 12,100 2,160 Climbing FlightAware ADS-B
12:25AM 40.5019 -73.0293 57° Northeast 425 489 12,700 2,160 Climbing FlightAware ADS-B
12:26AM 40.5271 -72.9842 54° Northeast 432 497 13,400 2,100 Climbing FlightAware ADS-B
12:26AM 40.5614 -72.9080 59° Northeast 442 509 14,600 1,980 Climbing FlightAware ADS-B
12:27AM 40.5890 -72.8370 63° Northeast 452 520 15,600 1,920 Climbing FlightAware
12:27AM 40.6040 -72.7949 65° Northeast 457 526 16,100 1,920 Climbing FlightAware ADS-B
12:28AM 40.6540 -72.6540 65° Northeast 470 541 17,900 1,860 Climbing FlightAware
12:28AM 40.6702 -72.6100 64° Northeast 475 547 18,400 1,740 Climbing FlightAware ADS-B
12:29AM 40.7013 -72.5226 65° Northeast 483 556 19,300 1,680 Climbing FlightAware ADS-B
12:30AM 40.7600 -72.3570 65° Northeast 494 568 21,100 1,680 Climbing FlightAware
12:30AM 40.7795 -72.3033 64° Northeast 498 573 21,600 1,440 Climbing FlightAware ADS-B
12:31AM 40.8097 -72.2178 65° Northeast 506 582 22,300 1,200 Climbing FlightAware ADS-B
12:31AM 40.8407 -72.1301 65° Northeast 517 595 22,900 1,200 Climbing FlightAware ADS-B
12:32AM 40.8716 -72.0422 65° Northeast 524 603 23,600 1,320 Climbing FlightAware ADS-B
12:32AM 40.9026 -71.9540 65° Northeast 529 609 24,300 1,320 Climbing FlightAware ADS-B
12:33AM 40.9345 -71.8629 65° Northeast 535 616 25,000 1,320 Climbing FlightAware ADS-B
12:33AM 40.9664 -71.7715 65° Northeast 538 619 25,700 1,260 Climbing FlightAware ADS-B
12:34AM 40.9980 -71.6807 65° Northeast 541 623 26,300 300 Climbing FlightAware ADS-B
12:35AM 41.0480 -71.5380 65° Northeast 541 623 26,200 -120 Descending FlightAware
12:35AM 41.0810 -71.4460 65° Northeast 541 623 26,200 1,800 Level FlightAware
12:36AM 41.1340 -71.2850 66° East 564 649 28,400 2,400 Climbing FlightAware
12:37AM 41.1850 -71.1380 65° Northeast 564 649 29,500 1,380 Climbing FlightAware
12:37AM 41.2220 -71.0270 66° East 562 647 30,300 1,260 Climbing FlightAware
12:38AM 41.2540 -70.9320 66° East 562 647 30,900 600 Climbing FlightAware
12:38AM 41.2970 -70.8060 66° East 563 648 31,100 120 Climbing FlightAware
12:39AM 41.3440 -70.6670 66° East 564 649 31,100  Level FlightAware
12:40AM 41.3990 -70.5010 66° East 564 649 31,100  Level FlightAware
12:41AM 41.4310 -70.4040 66° East 564 649 31,100  Level FlightAware
12:41AM 41.4640 -70.3060 66° East 564 649 31,100  Level FlightAware
12:42AM 41.4960 -70.2090 66° East 564 649 31,100  Level FlightAware
12:42AM 41.5290 -70.1120 66° East 564 649 31,100  Level FlightAware
12:43AM 41.5900 -69.9200 67° East 31,100  Level FlightAware
12:44AM 41.6230 -69.8210 66° East 501 577 31,100  Level FlightAware
12:45AM 41.7320 -69.4820 67° East 548 631 31,100  Level FlightAware
12:46AM 41.7690 -69.3640 67° East 548 631 31,100  Level FlightAware
12:47AM 41.8110 -69.2320 67° East 559 643 31,100  Level FlightAware
12:47AM 41.8460 -69.1230 67° East 559 643 31,100  Level FlightAware
12:48AM 41.8770 -69.0250 67° East 559 643 31,100  Level FlightAware
12:49AM 41.9280 -68.8630 67° East 31,100  Level FlightAware
12:49AM 41.9590 -68.7640 67° East 564 649 31,100  Level FlightAware
12:50AM 41.9940 -68.6460 68° East 564 649 31,100  Level FlightAware
12:50AM 42.0400 -68.5010 67° East 563 648 31,100  Level FlightAware
12:51AM 42.0760 -68.3850 67° East 565 650 31,100  Level FlightAware
12:52AM 42.1200 -68.2410 68° East 563 648 31,100  Level FlightAware
12:52AM 42.1500 -68.1450 67° East 562 647 31,100  Level FlightAware
12:53AM 42.1840 -68.0310 68° East 561 646 31,100  Level FlightAware
12:54AM 42.2210 -67.9140 67° East 560 644 31,100  Level FlightAware
12:55AM 42.2730 -67.7370 68° East 556 640 31,100  Level FlightAware
12:55AM 42.3030 -67.6360 68° East 556 640 31,100  Level FlightAware
12:56AM 42.3330 -67.5370 68° East 556 640 31,100  Level FlightAware
12:56AM 42.3620 -67.4380 68° East 556 640 31,100  Level FlightAware
12:57AM 42.3920 -67.3400 67° East 556 640 31,100  Level FlightAware
12:58AM 42.4210 -67.2410 68° East 556 640 31,100  Level FlightAware
12:58AM 42.4490 -67.1470 68° East 556 640 31,100  Level FlightAware
12:59AM 42.4790 -67.0460 68° East 556 640 31,100  Level FlightAware
12:59AM 42.5090 -66.9470 68° East 556 640 31,100  Level FlightAware
01:00AM 42.5850 -66.6760 69° East 560 644 31,100  Level FlightAware
01:00AM 42.6190 -66.5560 69° East 557 641 31,100 240 Level FlightAware
01:01AM 42.6520 -66.4430 68° East 560 644 31,400 660 Climbing FlightAware
01:02AM 42.6910 -66.3050 69° East 561 646 32,000 840 Climbing FlightAware
01:03AM 42.7420 -66.1250 69° East 563 648 32,800 480 Climbing FlightAware
01:03AM 42.7730 -66.0150 69° East 563 648 32,800 180 Level FlightAware
01:04AM 42.8140 -65.8660 69° East 569 655 33,100 240 Climbing FlightAware
01:05AM 42.8480 -65.7450 69° East 569 655 33,100  Level FlightAware
01:05AM 42.8870 -65.6060 69° East 570 656 33,100  Level FlightAware
01:06AM 42.9180 -65.4900 70° East 573 659 33,100  Level FlightAware
01:07AM 42.9550 -65.3550 69° East 575 662 33,100  Level FlightAware
01:07AM 42.9920 -65.2170 70° East 576 663 33,100  Level FlightAware
01:08AM 43.0420 -65.0350 69° East 581 669 33,100  Level FlightAware
01:09AM 43.0750 -64.9100 70° East 582 670 33,100  Level FlightAware
01:09AM 43.1050 -64.8000 69° East 750 863 33,100  Level FlightAware
01:10AM 43.1390 -64.6710 70° East 584 672 33,100  Level FlightAware
01:10AM 43.1690 -64.5580 70° East 584 672 33,100  Level FlightAware
01:11AM 43.2090 -64.4060 70° East 584 672 33,100  Level FlightAware
01:12AM 43.2420 -64.2800 70° East 584 672 33,100  Level FlightAware
01:12AM 43.2720 -64.1660 70° East 585 673 33,100  Level FlightAware
01:13AM 43.3190 -63.9840 70° East 586 674 33,100  Level FlightAware
01:14AM 43.3520 -63.8530 71° East 588 677 33,100  Level FlightAware
01:14AM 43.3850 -63.7260 70° East 588 677 33,100  Level FlightAware
01:15AM 43.4210 -63.5830 71° East 585 673 33,100  Level FlightAware
01:16AM 43.4530 -63.4570 71° East 581 669 33,100  Level FlightAware
01:16AM 43.4760 -63.3680 70° East 579 666 33,100  Level FlightAware
01:17AM 43.5170 -63.2010 71° East 578 665 33,100  Level FlightAware
01:18AM 43.5510 -63.0660 71° East 575 662 33,100  Level FlightAware
01:18AM 43.5870 -62.9190 71° East 568 654 33,100  Level FlightAware
01:19AM 43.6230 -62.7750 71° East 568 654 33,100  Level FlightAware
01:20AM 43.6530 -62.6510 71° East 568 654 33,100  Level FlightAware
01:20AM 43.6830 -62.5250 72° East 569 655 33,100  Level FlightAware
01:21AM 43.7220 -62.3650 71° East 570 656 33,100  Level FlightAware
01:22AM 43.7530 -62.2350 72° East 573 659 33,100  Level FlightAware
01:22AM 43.7810 -62.1200 71° East 575 662 33,100  Level FlightAware
01:23AM 43.8050 -62.0160 72° East 576 663 33,100  Level FlightAware
01:23AM 43.8400 -61.8670 72° East 577 664 33,100  Level FlightAware
01:24AM 43.8760 -61.7140 72° East 577 664 33,100  Level FlightAware
01:25AM 43.9030 -61.6010 72° East 577 664 33,100  Level FlightAware
01:25AM 43.9280 -61.4930 72° East 577 664 33,100  Level FlightAware
01:26AM 43.9530 -61.3850 72° East 577 664 33,100  Level FlightAware
01:27AM 43.9780 -61.2770 72° East 577 664 33,100  Level FlightAware
01:27AM 44.0040 -61.1690 71° East 577 664 33,100  Level FlightAware
01:28AM 44.0290 -61.0610 72° East 577 664 33,100  Level FlightAware
01:28AM 44.0540 -60.9530 72° East 577 664 33,100  Level FlightAware
01:29AM 44.0790 -60.8450 72° East 577 664 33,100  Level FlightAware
01:30AM 44.1050 -60.7370 71° East 577 664 33,100  Level FlightAware
01:30AM 44.1300 -60.6280 72° East 577 664 33,100  Level FlightAware
01:31AM 44.1550 -60.5200 72° East 577 664 33,100  Level FlightAware
01:31AM 44.1800 -60.4120 72° East 577 664 33,100  Level FlightAware
01:32AM 44.2050 -60.3030 72° East 577 664 33,100  Level FlightAware
01:33AM 44.2920 -59.8540 75° East 572 658 33,100  Level FlightAware
01:33AM 44.3160 -59.7440 73° East 572 658 33,100  Level FlightAware
01:34AM 44.3420 -59.6210 73° East 571 657 33,100  Level FlightAware
01:34AM 44.3660 -59.5040 74° East 571 657 33,100  Level FlightAware
01:35AM 44.3930 -59.3750 74° East 570 656 33,100  Level FlightAware
01:36AM 44.4200 -59.2480 73° East 569 655 33,100  Level FlightAware
01:36AM 44.4460 -59.1220 74° East 569 655 33,100  Level FlightAware
01:37AM 44.4720 -58.9950 74° East 569 655 33,100  Level FlightAware
01:37AM 44.4940 -58.8890 74° East 568 654 33,100  Level FlightAware
01:38AM 44.5210 -58.7560 74° East 567 652 33,100  Level FlightAware
01:39AM 44.5470 -58.6260 74° East 566 651 33,100  Level FlightAware
01:39AM 44.5720 -58.5000 74° East 564 649 33,100  Level FlightAware
01:40AM 44.5950 -58.3870 74° East 562 647 33,100  Level FlightAware
01:40AM 44.6190 -58.2650 75° East 561 646 33,100  Level FlightAware
01:41AM 44.6450 -58.1350 74° East 559 643 33,100  Level FlightAware
01:41AM 44.6690 -58.0090 75° East 557 641 33,100  Level FlightAware
01:42AM 44.6970 -57.8690 74° East 555 639 33,100  Level FlightAware
01:43AM 44.7210 -57.7430 75° East 555 639 33,100  Level FlightAware
01:43AM 44.7440 -57.6230 75° East 555 639 33,100  Level FlightAware
01:44AM 44.7660 -57.5100 75° East 554 638 33,100  Level FlightAware
01:44AM 44.7860 -57.4010 75° East 553 636 33,100  Level FlightAware
01:45AM 44.8130 -57.2610 75° East 549 632 33,100  Level FlightAware
01:46AM 44.8400 -57.1150 75° East 548 631 33,100  Level FlightAware
01:46AM 44.8600 -57.0070 75° East 548 631 33,100  Level FlightAware
01:47AM 44.8800 -56.9010 75° East 548 631 33,100  Level FlightAware
01:48AM 44.9010 -56.7920 75° East 548 631 33,100  Level FlightAware
01:48AM 44.9210 -56.6860 75° East 548 631 33,100  Level FlightAware
01:49AM 44.9410 -56.5810 75° East 548 631 33,100  Level FlightAware
01:49AM 44.9610 -56.4750 75° East 548 631 33,100  Level FlightAware
01:50AM 44.9810 -56.3690 75° East 548 631 33,100  Level FlightAware
01:51AM 45.0010 -56.2630 75° East 548 631 33,100  Level FlightAware
01:51AM 45.0210 -56.1570 75° East 548 631 33,100  Level FlightAware
01:52AM 45.0410 -56.0510 75° East 548 631 33,100  Level FlightAware
01:52AM 45.0610 -55.9450 75° East 548 631 33,100  Level FlightAware
01:53AM 45.0810 -55.8380 75° East 548 631 33,100  Level FlightAware
01:54AM 45.1020 -55.7320 74° East 548 631 33,100  Level FlightAware
01:54AM 45.1220 -55.6260 75° East 548 631 33,100  Level FlightAware
01:55AM 45.1420 -55.5200 75° East 548 631 33,100  Level FlightAware
01:55AM 45.1630 -55.4080 75° East 548 631 33,100  Level FlightAware
01:56AM 45.2360 -54.9680 77° East 529 609 33,100  Level FlightAware
01:57AM 45.2560 -54.8630 75° East 529 609 33,100  Level FlightAware
01:57AM 45.2750 -54.7600 75° East 529 609 33,100  Level FlightAware
01:58AM 45.2940 -54.6570 75° East 529 609 33,100  Level FlightAware
01:59AM 45.3140 -54.5540 75° East 529 609 33,100  Level FlightAware
01:59AM 45.3510 -54.3120 78° East 533 613 33,100  Level FlightAware
02:00AM 45.3690 -54.2080 76° East 533 613 33,100  Level FlightAware
02:01AM 45.3880 -54.1010 76° East 533 613 33,100  Level FlightAware
02:01AM 45.4060 -53.9970 76° East 533 613 33,100  Level FlightAware
02:02AM 45.4250 -53.8900 76° East 533 613 33,100  Level FlightAware
02:02AM 45.4430 -53.7850 76° East 533 613 33,100  Level FlightAware
02:03AM 45.4600 -53.6870 76° East 533 613 33,100  Level FlightAware
02:04AM 45.4780 -53.5820 76° East 533 613 33,100  Level FlightAware
02:04AM 45.4970 -53.4780 75° East 533 613 33,100  Level FlightAware
02:05AM 45.5150 -53.3730 76° East 533 613 33,100  Level FlightAware
02:05AM 45.5330 -53.2690 76° East 533 613 33,100  Level FlightAware
02:06AM 45.5510 -53.1640 76° East 533 613 33,100  Level FlightAware
02:07AM 45.5690 -53.0600 76° East 533 613 33,100  Level FlightAware
02:07AM 45.5880 -52.9550 75° East 533 613 33,100  Level FlightAware
02:08AM 45.6060 -52.8510 76° East 533 613 33,100  Level FlightAware
02:08AM 45.6240 -52.7460 76° East 533 613 33,100 660 Level FlightAware
02:09AM 45.6500 -52.2333 76° East 530 610 34,100 540 Climbing Gander Center
02:10AM 45.7000 -52.0333 70° East 540 621 34,100  Level Gander Center
02:11AM 45.7167 -51.8333 83° East 540 621 34,100  Level Gander Center
02:12AM 45.7500 -51.6333 76° East 530 610 34,100  Level Gander Center
02:13AM 45.7833 -51.4167 77° East 540 621 34,100  Level Gander Center
02:15AM 45.8167 -51.1333 80° East 540 621 34,100  Level Gander Center
02:16AM 45.8500 -50.9333 76° East 540 621 34,100  Level Gander Center
02:17AM 45.8833 -50.7167 77° East 540 621 34,100  Level Gander Center
02:18AM 45.9000 -50.5167 83° East 540 621 34,100  Level Gander Center
02:19AM 45.9500 -50.3000 72° East 540 621 34,100  Level Gander Center
02:20AM 45.9500 -50.1000 90° East 540 621 34,100  Level Gander Center
02:21AM 46.0000 -49.8667 73° East 540 621 34,100  Level Gander Center
02:22AM 46.0500 -49.6833 68° East 530 610 34,100  Level Gander Center
02:23AM 46.1000 -49.4833 70° East 530 610 34,100  Level Gander Center
02:24AM 46.1333 -49.2833 76° East 520 598 34,100  Level Gander Center
02:25AM 46.0000 -50.0000 70° East 34,000  Descending ETMS Enhanced Traffic Management System
02:25AM 46.1833 -49.1000 68° East 510 587 34,100 60 Climbing Gander Center
02:26AM 46.2500 -48.9000 70° East 540 621 34,100  Level Gander Center
02:27AM 46.2833 -48.6833 77° East 530 610 34,100  Level Gander Center
02:28AM 46.3333 -48.5000 68° East 530 610 34,100  Level Gander Center
02:29AM 46.4000 -48.2667 67° East 580 667 34,100  Level Gander Center
02:30AM 46.4333 -48.0833 75° East 520 598 34,100  Level Gander Center
02:31AM 46.4833 -47.8833 70° East 530 610 34,100  Level Gander Center
02:33AM 46.5667 -47.4667 74° East 520 598 34,100  Level Gander Center
02:34AM 46.6000 -47.2833 75° East 540 621 34,100  Level Gander Center
02:36AM 46.7333 -46.7833 69° East 470 541 34,100  Level Gander Center
02:37AM 46.7500 -46.6833 76° East 470 541 34,100  Level Gander Center
02:39AM 46.8502 -46.3322 73° East  Level FlightAware Approximate
02:46AM 47.1512 -44.8586 73° East  Level FlightAware Approximate
02:47AM 47.1926 -44.6467 74° East  Level FlightAware Approximate
02:48AM 47.2337 -44.4345 74° East  Level FlightAware Approximate
02:49AM 47.2744 -44.2220 74° East  Level FlightAware Approximate
02:50AM 47.3146 -44.0092 74° East  Level FlightAware Approximate
02:51AM 47.3545 -43.7960 74° East  Level FlightAware Approximate
02:52AM 47.3940 -43.5825 75° East  Level FlightAware Approximate
02:53AM 47.4331 -43.3687 75° East  Level FlightAware Approximate
02:54AM 47.4717 -43.1546 75° East  Level FlightAware Approximate
02:55AM 47.5100 -42.9401 75° East  Level FlightAware Approximate
02:56AM 47.5479 -42.7254 75° East  Level FlightAware Approximate
02:57AM 47.5854 -42.5103 75° East  Level FlightAware Approximate
02:58AM 47.6225 -42.2950 76° East  Level FlightAware Approximate
02:59AM 47.6594 -42.0794 75° East  Level FlightAware Approximate
03:00AM 47.6967 -41.8638 76° East  Level FlightAware Approximate
03:01AM 47.7335 -41.6479 76° East  Level FlightAware Approximate
03:02AM 47.7700 -41.4317 76° East  Level FlightAware Approximate
03:03AM 47.8061 -41.2152 76° East  Level FlightAware Approximate
03:04AM 47.8417 -40.9984 76° East  Level FlightAware Approximate
03:05AM 47.8769 -40.7813 76° East  Level FlightAware Approximate
03:06AM 47.9118 -40.5639 76° East  Level FlightAware Approximate
03:07AM 47.9462 -40.3462 77° East  Level FlightAware Approximate
03:08AM 47.9802 -40.1282 77° East  Level FlightAware Approximate
03:09AM 48.0131 -39.9097 78° East  Level FlightAware Approximate
03:10AM 48.0447 -39.6907 78° East  Level FlightAware Approximate
03:11AM 48.0759 -39.4713 78° East  Level FlightAware Approximate
03:12AM 48.1066 -39.2517 78° East  Level FlightAware Approximate
03:13AM 48.1369 -39.0318 78° East  Level FlightAware Approximate
03:14AM 48.1665 -38.8144 78° East  Level FlightAware Approximate
03:15AM 48.1956 -38.5967 79° East  Level FlightAware Approximate
03:16AM 48.2243 -38.3787 79° East  Level FlightAware Approximate
03:17AM 48.2526 -38.1605 79° East  Level FlightAware Approximate
03:18AM 48.2805 -37.9421 79° East  Level FlightAware Approximate
03:19AM 48.3080 -37.7234 79° East  Level FlightAware Approximate
03:20AM 48.3350 -37.5045 79° East  Level FlightAware Approximate
03:21AM 48.3617 -37.2853 80° East  Level FlightAware Approximate
03:22AM 48.3879 -37.0659 80° East  Level FlightAware Approximate
03:23AM 48.4137 -36.8463 80° East  Level FlightAware Approximate
03:24AM 48.4391 -36.6265 80° East  Level FlightAware Approximate
03:25AM 48.4641 -36.4065 80° East  Level FlightAware Approximate
03:26AM 48.4887 -36.1862 80° East  Level FlightAware Approximate
03:27AM 48.5128 -35.9658 81° East  Level FlightAware Approximate
03:28AM 48.5365 -35.7451 81° East  Level FlightAware Approximate
03:29AM 48.5598 -35.5242 81° East  Level FlightAware Approximate
03:30AM 48.5827 -35.3031 81° East  Level FlightAware Approximate
03:31AM 48.6051 -35.0819 81° East  Level FlightAware Approximate
03:32AM 48.6272 -34.8604 81° East  Level FlightAware Approximate
03:33AM 48.6488 -34.6387 82° East  Level FlightAware Approximate
03:34AM 48.6699 -34.4169 82° East  Level FlightAware Approximate
03:35AM 48.6907 -34.1948 82° East  Level FlightAware Approximate
03:36AM 48.7110 -33.9726 82° East  Level FlightAware Approximate
03:37AM 48.7309 -33.7502 82° East  Level FlightAware Approximate
03:38AM 48.7503 -33.5276 82° East  Level FlightAware Approximate
03:39AM 48.7694 -33.3049 83° East  Level FlightAware Approximate
03:40AM 48.7880 -33.0820 83° East  Level FlightAware Approximate
03:41AM 48.8061 -32.8589 83° East  Level FlightAware Approximate
03:42AM 48.8239 -32.6357 83° East  Level FlightAware Approximate
03:43AM 48.8412 -32.4123 83° East  Level FlightAware Approximate
03:44AM 48.8581 -32.1888 83° East  Level FlightAware Approximate
03:45AM 48.8745 -31.9651 84° East  Level FlightAware Approximate
03:46AM 48.8905 -31.7412 84° East  Level FlightAware Approximate
03:47AM 48.9061 -31.5173 84° East  Level FlightAware Approximate
03:48AM 48.9212 -31.2932 84° East  Level FlightAware Approximate
03:49AM 48.9360 -31.0689 84° East  Level FlightAware Approximate
03:50AM 48.9502 -30.8445 84° East  Level FlightAware Approximate
03:51AM 48.9641 -30.6200 85° East  Level FlightAware Approximate
03:52AM 48.9775 -30.3954 85° East  Level FlightAware Approximate
03:53AM 48.9905 -30.1707 85° East  Level FlightAware Approximate
03:54AM 49.0076 -29.9469 78° East  Level FlightAware Approximate
03:55AM 49.0388 -29.7262 78° East  Level FlightAware Approximate
03:56AM 49.0696 -29.5052 78° East  Level FlightAware Approximate
03:57AM 49.0999 -29.2839 78° East  Level FlightAware Approximate
03:58AM 49.1298 -29.0623 78° East  Level FlightAware Approximate
03:59AM 49.1594 -28.8405 78° East  Level FlightAware Approximate
04:00AM 49.1884 -28.6185 79° East  Level FlightAware Approximate
04:01AM 49.2171 -28.3962 79° East  Level FlightAware Approximate
04:02AM 49.2453 -28.1736 79° East  Level FlightAware Approximate
04:03AM 49.2731 -27.9508 79° East  Level FlightAware Approximate
04:04AM 49.3005 -27.7277 79° East  Level FlightAware Approximate
04:05AM 49.3274 -27.5044 79° East  Level FlightAware Approximate
04:06AM 49.3540 -27.2808 80° East  Level FlightAware Approximate
04:07AM 49.3800 -27.0570 80° East  Level FlightAware Approximate
04:08AM 49.4057 -26.8329 80° East  Level FlightAware Approximate
04:09AM 49.4309 -26.6087 80° East  Level FlightAware Approximate
04:10AM 49.4557 -26.3841 80° East  Level FlightAware Approximate
04:11AM 49.4809 -26.1596 80° East  Level FlightAware Approximate
04:12AM 49.5064 -25.9351 80° East  Level FlightAware Approximate
04:13AM 49.5314 -25.7103 80° East  Level FlightAware Approximate
04:14AM 49.5560 -25.4853 80° East  Level FlightAware Approximate
04:15AM 49.5802 -25.2600 81° East  Level FlightAware Approximate
04:16AM 49.6040 -25.0346 81° East  Level FlightAware Approximate
04:17AM 49.6273 -24.8089 81° East  Level FlightAware Approximate
04:18AM 49.6501 -24.5830 81° East  Level FlightAware Approximate
04:19AM 49.6719 -24.3568 82° East  Level FlightAware Approximate
04:20AM 49.6915 -24.1300 82° East  Level FlightAware Approximate
04:21AM 49.7107 -23.9030 82° East  Level FlightAware Approximate
04:22AM 49.7294 -23.6758 83° East  Level FlightAware Approximate
04:23AM 49.7477 -23.4485 83° East  Level FlightAware Approximate
04:24AM 49.7655 -23.2209 83° East  Level FlightAware Approximate
04:25AM 49.7829 -22.9933 83° East  Level FlightAware Approximate
04:26AM 49.7999 -22.7654 83° East  Level FlightAware Approximate
04:27AM 49.8164 -22.5374 84° East  Level FlightAware Approximate
04:28AM 49.8351 -22.3098 83° East  Level FlightAware Approximate
04:29AM 49.8535 -22.0819 83° East  Level FlightAware Approximate
04:30AM 49.8714 -21.8539 83° East  Level FlightAware Approximate
04:31AM 49.8889 -21.6258 83° East  Level FlightAware Approximate
04:32AM 49.9059 -21.3974 83° East  Level FlightAware Approximate
04:33AM 49.9224 -21.1689 83° East  Level FlightAware Approximate
04:34AM 49.9386 -20.9403 84° East  Level FlightAware Approximate
04:35AM 49.9542 -20.7115 84° East  Level FlightAware Approximate
04:36AM 49.9694 -20.4825 84° East  Level FlightAware Approximate
04:37AM 49.9842 -20.2535 84° East  Level FlightAware Approximate
04:38AM 49.9985 -20.0242 84° East  Level FlightAware Approximate
04:39AM 49.9933 -19.7943 93° East  Level FlightAware Approximate
04:40AM 49.9854 -19.5643 93° East  Level FlightAware Approximate
04:41AM 49.9771 -19.3344 93° East  Level FlightAware Approximate
04:42AM 49.9682 -19.1046 93° East  Level FlightAware Approximate
04:43AM 49.9590 -18.8749 94° East  Level FlightAware Approximate
04:44AM 49.9492 -18.6453 94° East  Level FlightAware Approximate
04:45AM 49.9391 -18.4158 94° East  Level FlightAware Approximate
04:46AM 49.9284 -18.1863 94° East  Level FlightAware Approximate
04:47AM 49.9174 -17.9570 94° East  Level FlightAware Approximate
04:48AM 49.9058 -17.7278 94° East  Level FlightAware Approximate
04:49AM 49.8938 -17.4987 95° East  Level FlightAware Approximate
04:50AM 49.8814 -17.2697 95° East  Level FlightAware Approximate
04:51AM 49.8685 -17.0408 95° East  Level FlightAware Approximate
04:52AM 49.8552 -16.8120 95° East  Level FlightAware Approximate
04:53AM 49.8414 -16.5834 95° East  Level FlightAware Approximate
04:54AM 49.8272 -16.3549 95° East  Level FlightAware Approximate
04:55AM 49.8125 -16.1266 96° East  Level FlightAware Approximate
04:56AM 49.7974 -15.8984 96° East  Level FlightAware Approximate
04:57AM 49.7818 -15.6703 96° East  Level FlightAware Approximate
04:58AM 49.7658 -15.4424 96° East  Level FlightAware Approximate
04:59AM 49.7493 -15.2146 96° East  Level FlightAware Approximate
05:00AM 49.7323 -14.9870 97° East  Level FlightAware Approximate
05:01AM 49.7147 -14.7600 97° East  Level FlightAware Approximate
05:02AM 49.6965 -14.5332 97° East  Level FlightAware Approximate
05:03AM 49.6780 -14.3066 97° East  Level FlightAware Approximate
05:04AM 49.6590 -14.0801 97° East  Level FlightAware Approximate
05:05AM 49.6396 -13.8538 97° East  Level FlightAware Approximate
05:06AM 49.6197 -13.6277 98° East  Level FlightAware Approximate
05:07AM 49.5994 -13.4018 98° East  Level FlightAware Approximate
05:08AM 49.5786 -13.1760 98° East  Level FlightAware Approximate
05:09AM 49.5574 -12.9505 98° East  Level FlightAware Approximate
05:10AM 49.5358 -12.7252 98° East  Level FlightAware Approximate
05:11AM 49.5208 -12.4987 95° East  Level FlightAware Approximate
05:12AM 49.5003 -12.2733 99° East  Level FlightAware Approximate
05:13AM 49.4768 -12.0487 99° East  Level FlightAware Approximate
05:14AM 49.4530 -11.8242 99° East  Level FlightAware Approximate
05:15AM 49.4287 -11.6000 99° East  Level FlightAware Approximate
05:16AM 49.4040 -11.3760 100° East  Level FlightAware Approximate
05:17AM 49.3788 -11.1523 100° East  Level FlightAware Approximate
05:18AM 49.3533 -10.9288 100° East  Level FlightAware Approximate
05:19AM 49.3273 -10.7055 100° East  Level FlightAware Approximate
05:19AM 49.2210 -9.0560 100° East 577 664 35,100  Level FlightAware
05:20AM 49.1910 -8.8680 104° East 577 664 35,100 -120 Level FlightAware
05:20AM 49.1658 -8.7245 104° East 498 573 35,000  Descending FlightAware UK
05:20AM 49.1660 -8.7140 104° East 577 664 35,100 120 Climbing FlightAware
05:21AM 49.1450 -8.5880 104° East 578 665 35,100  Level FlightAware
05:21AM 49.1250 -8.4630 104° East 578 665 35,100  Level FlightAware
05:22AM 49.0980 -8.3140 105° East 580 667 35,100  Level FlightAware
05:23AM 49.0630 -8.1690 110° East 583 671 35,100  Level FlightAware
05:23AM 49.0230 -8.0320 114° Southeast 585 673 35,100 -120 Level FlightAware
05:24AM 48.9879 -7.9150 114° Southeast 498 573 35,000  Descending FlightAware UK
05:24AM 48.9890 -7.9180 114° Southeast 584 672 35,100 120 Climbing FlightAware
05:24AM 48.9460 -7.7770 115° Southeast 585 673 35,100  Level FlightAware
05:25AM 48.9030 -7.6360 115° Southeast 586 674 35,100  Level FlightAware
05:25AM 48.8680 -7.5250 116° Southeast 585 673 35,100  Level FlightAware
05:26AM 48.8250 -7.3850 115° Southeast 586 674 35,100  Level FlightAware
05:27AM 48.7820 -7.2480 115° Southeast 587 676 35,100  Level FlightAware
05:27AM 48.7440 -7.1300 115° Southeast 587 676 35,100 -180 Level FlightAware
05:27AM 48.7379 -7.1103 115° Southeast 500 575 35,000 -180 Descending FlightAware UK
05:28AM 48.7023 -6.9990 115° Southeast 498 573 35,000 120 Level FlightAware UK
05:28AM 48.6940 -6.9720 115° Southeast 587 676 35,100 120 Climbing FlightAware
05:29AM 48.6560 -6.8540 116° Southeast 587 676 35,100  Level FlightAware
05:29AM 48.6050 -6.6960 116° Southeast 588 677 35,100 -120 Level FlightAware
05:30AM 48.5602 -6.5566 116° Southeast 498 573 35,000  Descending FlightAware UK
05:30AM 48.5600 -6.5550 116° Southeast 588 677 35,100  Climbing FlightAware
05:30AM 48.5243 -6.4457 116° Southeast 496 571 35,000  Descending FlightAware UK
05:30AM 48.5200 -6.4320 116° Southeast 589 678 35,100 120 Climbing FlightAware
05:31AM 48.4770 -6.3000 116° Southeast 590 679 35,100  Level FlightAware
05:32AM 48.4340 -6.1680 116° Southeast 591 680 35,100 -120 Level FlightAware
05:32AM 48.3938 -6.0475 116° Southeast 498 573 35,000  Descending FlightAware UK
05:32AM 48.3890 -6.0330 116° Southeast 591 680 35,100 120 Climbing FlightAware
05:33AM 48.3500 -5.9160 117° Southeast 592 681 35,100  Level FlightAware
05:33AM 48.3060 -5.7840 117° Southeast 591 680 35,100  Level FlightAware
05:34AM 48.2620 -5.6520 117° Southeast 591 680 35,100  Level FlightAware
05:34AM 48.2220 -5.5330 117° Southeast 589 678 35,100  Level FlightAware
05:35AM 48.1790 -5.4060 117° Southeast 589 678 35,100  Level FlightAware
05:36AM 48.1350 -5.2760 117° Southeast 588 677 35,100  Level FlightAware
05:36AM 48.0890 -5.1410 117° Southeast 588 677 35,100  Level FlightAware
05:37AM 48.0500 -5.0260 117° Southeast 587 676 35,100  Level FlightAware
05:37AM 48.0060 -4.8980 117° Southeast 587 676 35,100  Level FlightAware
05:38AM 47.9610 -4.7680 117° Southeast 587 676 35,100  Level FlightAware
05:39AM 47.9150 -4.6380 118° Southeast 588 677 35,100  Level FlightAware
05:39AM 47.8780 -4.5310 117° Southeast 587 676 35,100  Level FlightAware
05:40AM 47.8340 -4.4050 117° Southeast 587 676 35,100  Level FlightAware
05:40AM 47.7880 -4.2740 118° Southeast 588 677 35,100  Level FlightAware
05:41AM 47.7430 -4.1460 118° Southeast 589 678 35,100  Level FlightAware
05:42AM 47.6960 -4.0130 118° Southeast 591 680 35,100  Level FlightAware
05:42AM 47.6570 -3.9030 118° Southeast 592 681 35,100  Level FlightAware
05:43AM 47.6050 -3.7590 118° Southeast 592 681 35,100  Level FlightAware
05:43AM 47.5640 -3.6430 118° Southeast 593 682 35,100  Level FlightAware
05:44AM 47.5150 -3.5050 118° Southeast 593 682 35,100  Level FlightAware
05:44AM 47.4740 -3.3890 118° Southeast 593 682 35,100  Level FlightAware
05:45AM 47.4290 -3.2600 117° Southeast 595 685 35,100  Level FlightAware
05:46AM 47.3840 -3.1350 118° Southeast 596 686 35,100  Level FlightAware
05:46AM 47.3360 -3.0020 118° Southeast 597 687 35,100  Level FlightAware
05:47AM 47.2960 -2.8880 117° Southeast 598 688 35,100  Level FlightAware
05:47AM 47.2470 -2.7530 118° Southeast 598 688 35,100  Level FlightAware
05:48AM 47.1990 -2.6220 118° Southeast 598 688 35,100  Level FlightAware
05:49AM 47.1580 -2.5100 118° Southeast 599 689 35,100  Level FlightAware
05:49AM 47.1100 -2.3800 118° Southeast 600 690 35,100  Level FlightAware
05:50AM 47.0620 -2.2510 119° Southeast 601 692 35,100  Level FlightAware
05:50AM 47.0200 -2.1360 118° Southeast 601 692 35,100  Level FlightAware
05:51AM 46.9710 -2.0050 119° Southeast 602 693 35,100  Level FlightAware
05:51AM 46.9290 -1.8920 119° Southeast 601 692 35,100  Level FlightAware
05:52AM 46.8780 -1.7560 119° Southeast 603 694 35,100  Level FlightAware
05:53AM 46.8290 -1.6260 119° Southeast 602 693 35,100  Level FlightAware
05:53AM 46.7850 -1.5120 119° Southeast 603 694 35,100  Level FlightAware
05:54AM 46.7380 -1.3860 119° Southeast 602 693 35,100  Level FlightAware
05:54AM 46.6880 -1.2570 119° Southeast 602 693 35,100  Level FlightAware
05:55AM 46.6390 -1.1290 119° Southeast 602 693 35,100  Level FlightAware
05:56AM 46.5960 -1.0170 119° Southeast 603 694 35,100  Level FlightAware
05:56AM 46.5510 -0.9010 119° Southeast 603 694 35,100  Level FlightAware
05:57AM 46.5140 -0.7760 113° Southeast 600 690 35,100  Level FlightAware
05:57AM 46.4800 -0.6410 110° East 600 690 35,100  Level FlightAware
05:58AM 46.4470 -0.5030 109° East 599 689 35,100  Level FlightAware
05:58AM 46.4180 -0.3870 110° East 598 688 35,100  Level FlightAware
05:59AM 46.3820 -0.2500 111° Southeast 696 801 35,100  Level FlightAware
06:00AM 46.3500 -0.1240 110° East 595 685 35,100  Level FlightAware
06:00AM 46.3120 0.0200 111° Southeast 593 682 35,100  Level FlightAware
06:01AM 46.2770 0.1540 111° Southeast 593 682 35,100  Level FlightAware
06:01AM 46.2390 0.2970 111° Southeast 592 681 35,100  Level FlightAware
06:02AM 46.2010 0.4380 111° Southeast 590 679 35,100  Level FlightAware
06:03AM 46.1690 0.5590 111° Southeast 589 678 35,100  Level FlightAware
06:03AM 46.1360 0.6820 111° Southeast 587 676 35,100  Level FlightAware
06:04AM 46.1000 0.8140 111° Southeast 586 674 35,100  Level FlightAware
06:04AM 46.0690 0.9290 111° Southeast 585 673 35,100  Level FlightAware
06:05AM 46.0320 1.0650 111° Southeast 584 672 35,100  Level FlightAware
06:06AM 45.9940 1.2060 111° Southeast 582 670 35,100  Level FlightAware
06:06AM 45.9640 1.3130 112° Southeast 582 670 35,100  Level FlightAware
06:07AM 45.9290 1.4410 111° Southeast 580 667 35,100  Level FlightAware
06:07AM 45.8940 1.5680 112° Southeast 578 665 35,100  Level FlightAware
06:08AM 45.8610 1.6850 112° Southeast 576 663 35,100  Level FlightAware
06:08AM 45.8250 1.8130 112° Southeast 573 659 35,100  Level FlightAware
06:09AM 45.7940 1.9230 112° Southeast 570 656 35,100  Level FlightAware
06:10AM 45.7600 2.0470 111° Southeast 567 652 35,100  Level FlightAware
06:10AM 45.7250 2.1650 113° Southeast 565 650 35,100  Level FlightAware
06:11AM 45.6810 2.2930 116° Southeast 564 649 35,100  Level FlightAware
06:11AM 45.6410 2.4080 116° Southeast 565 650 35,100  Level FlightAware
06:12AM 45.5950 2.5410 116° Southeast 564 649 35,100  Level FlightAware
06:13AM 45.5530 2.6640 116° Southeast 565 650 35,100  Level FlightAware
06:13AM 45.5190 2.7630 116° Southeast 563 648 35,100  Level FlightAware
06:14AM 45.4770 2.8850 116° Southeast 563 648 35,100  Level FlightAware
06:14AM 45.4380 2.9980 116° Southeast 561 646 35,100  Level FlightAware
06:15AM 45.3950 3.1220 116° Southeast 562 647 35,100  Level FlightAware
06:15AM 45.3550 3.2350 117° Southeast 563 648 35,100  Level FlightAware
06:16AM 45.3090 3.3700 116° Southeast 560 644 35,100 180 Level FlightAware
06:17AM 45.2670 3.4870 117° Southeast 562 647 35,400 840 Climbing FlightAware
06:17AM 45.2260 3.6030 117° Southeast 563 648 36,100 960 Climbing FlightAware
06:18AM 45.1820 3.7270 117° Southeast 567 652 36,600 840 Climbing FlightAware
06:18AM 45.1440 3.8340 117° Southeast 569 655 37,100 420 Climbing FlightAware
06:19AM 45.0970 3.9600 118° Southeast 570 656 37,100  Level FlightAware
06:20AM 45.0530 4.0630 121° Southeast 568 654 37,100  Level FlightAware
06:20AM 45.0030 4.1790 121° Southeast 566 651 37,100  Level FlightAware
06:21AM 44.9640 4.2710 121° Southeast 564 649 37,100  Level FlightAware
06:21AM 44.9070 4.4040 121° Southeast 561 646 37,100  Level FlightAware
06:22AM 44.8590 4.5190 120° Southeast 560 644 37,100  Level FlightAware
06:23AM 44.8260 4.6200 115° Southeast 563 648 37,100  Level FlightAware
06:23AM 44.7950 4.7320 111° Southeast 560 644 37,100  Level FlightAware
06:24AM 44.7590 4.8520 113° Southeast 558 642 37,100  Level FlightAware
06:24AM 44.7250 4.9730 112° Southeast 556 640 37,100  Level FlightAware
06:25AM 44.6900 5.0960 112° Southeast 554 638 37,100  Level FlightAware
06:26AM 44.6560 5.2160 112° Southeast 551 634 37,100  Level FlightAware
06:26AM 44.6220 5.3350 112° Southeast 549 632 37,100  Level FlightAware
06:27AM 44.5930 5.4340 112° Southeast 548 631 37,100  Level FlightAware
06:27AM 44.5560 5.5550 113° Southeast 547 629 37,100  Level FlightAware
06:28AM 44.5160 5.6520 120° Southeast 545 627 37,100  Level FlightAware
06:28AM 44.4620 5.7710 122° Southeast 545 627 37,100  Level FlightAware
06:29AM 44.4180 5.8670 123° Southeast 545 627 37,100  Level FlightAware
06:30AM 44.3700 5.9630 125° Southeast 545 627 37,100  Level FlightAware
06:30AM 44.3160 6.0730 124° Southeast 545 627 37,100  Level FlightAware
06:31AM 44.2720 6.1650 124° Southeast 544 626 37,100  Level FlightAware
06:31AM 44.2250 6.2610 124° Southeast 544 626 37,100  Level FlightAware
06:32AM 44.1730 6.3660 125° Southeast 543 625 37,100  Level FlightAware
06:33AM 44.1180 6.4780 124° Southeast 543 625 37,100  Level FlightAware
06:33AM 44.0720 6.5720 124° Southeast 542 624 37,100  Level FlightAware
06:34AM 44.0170 6.6820 125° Southeast 541 623 37,100  Level FlightAware
06:34AM 43.9680 6.7820 124° Southeast 540 621 37,100  Level FlightAware
06:35AM 43.9190 6.8810 124° Southeast 539 620 37,100  Level FlightAware
06:35AM 43.8680 6.9840 124° Southeast 538 619 37,100  Level FlightAware
06:36AM 43.8200 7.0790 125° Southeast 537 618 37,100  Level FlightAware
06:37AM 43.7740 7.1720 124° Southeast 537 618 37,100  Level FlightAware
06:37AM 43.7220 7.2760 125° Southeast 538 619 37,100  Level FlightAware
06:38AM 43.6720 7.3740 125° Southeast 538 619 37,100  Level FlightAware
06:38AM 43.6300 7.4580 125° Southeast 537 618 37,100  Level FlightAware
06:39AM 43.5720 7.5720 125° Southeast 536 617 37,100  Level FlightAware
06:40AM 43.5120 7.6900 125° Southeast 536 617 37,100  Level FlightAware
06:40AM 43.4630 7.7870 125° Southeast 536 617 37,100  Level FlightAware
06:41AM 43.4160 7.8780 125° Southeast 535 616 37,100  Level FlightAware
06:41AM 43.3650 7.9770 125° Southeast 535 616 37,100  Level FlightAware
06:42AM 43.3100 8.0840 125° Southeast 535 616 37,100  Level FlightAware
06:43AM 43.2620 8.1770 125° Southeast 535 616 37,100  Level FlightAware
06:43AM 43.2090 8.2790 125° Southeast 534 615 37,100  Level FlightAware
06:44AM 43.1620 8.3690 126° Southeast 535 616 37,100  Level FlightAware
06:44AM 43.1140 8.4610 126° Southeast 535 616 37,100  Level FlightAware
06:45AM 43.0590 8.5650 126° Southeast 534 615 37,100  Level FlightAware
06:46AM 42.9960 8.6850 126° Southeast 528 608 37,100  Level FlightAware
06:46AM 42.9440 8.7830 126° Southeast 527 606 37,100  Level FlightAware
06:47AM 42.8880 8.8890 126° Southeast 529 609 37,100  Level FlightAware
06:47AM 42.8430 8.9740 126° Southeast 527 606 37,100  Level FlightAware
06:48AM 42.7920 9.0700 126° Southeast 526 605 37,100  Level FlightAware
06:49AM 42.7390 9.1680 126° Southeast 526 605 37,100  Level FlightAware
06:49AM 42.6910 9.2580 126° Southeast 523 602 37,100  Level FlightAware
06:50AM 42.6390 9.3530 127° Southeast 523 602 37,100  Level FlightAware
06:50AM 42.5890 9.4520 124° Southeast 522 601 37,100  Level FlightAware
06:51AM 42.5550 9.5450 116° Southeast 519 597 37,100  Level FlightAware
06:52AM 42.5250 9.6550 110° East 517 595 37,100  Level FlightAware
06:52AM 42.4970 9.7640 109° East 516 594 37,100  Level FlightAware
06:53AM 42.4720 9.8610 109° East 516 594 37,100  Level FlightAware
06:53AM 42.4430 9.9700 110° East 517 595 37,100  Level FlightAware
06:54AM 42.4130 10.0780 111° Southeast 516 594 37,100  Level FlightAware
06:54AM 42.3840 10.1880 110° East 515 593 37,100  Level FlightAware
06:55AM 42.3540 10.3000 110° East 514 592 37,100  Level FlightAware
06:56AM 42.3270 10.3960 111° Southeast 513 590 37,100  Level FlightAware
06:56AM 42.2980 10.5030 110° East 511 588 37,100  Level FlightAware
06:57AM 42.2680 10.6120 110° East 510 587 37,100  Level FlightAware
06:57AM 42.2380 10.7200 111° Southeast 509 586 37,100  Level FlightAware
06:58AM 42.2110 10.8160 111° Southeast 509 586 37,100  Level FlightAware
06:59AM 42.1810 10.9220 111° Southeast 509 586 37,100  Level FlightAware
06:59AM 42.1520 11.0270 110° East 508 585 37,100  Level FlightAware
07:00AM 42.1210 11.1350 111° Southeast 507 583 37,100  Level FlightAware
07:00AM 42.0950 11.2280 111° Southeast 507 583 37,100  Level FlightAware
07:01AM 42.0640 11.3330 112° Southeast 509 586 37,100  Level FlightAware
07:01AM 42.0170 11.4270 124° Southeast 514 592 37,100  Level FlightAware
07:02AM 41.9600 11.5090 133° Southeast 514 592 37,100  Level FlightAware
07:03AM 41.9010 11.5930 133° Southeast 514 592 37,100  Level FlightAware
07:03AM 41.8430 11.6740 134° Southeast 514 592 37,100  Level FlightAware
07:04AM 41.7910 11.7480 133° Southeast 514 592 37,100  Level FlightAware
07:04AM 41.7340 11.8280 134° Southeast 514 592 37,100  Level FlightAware
07:05AM 41.6780 11.9060 134° Southeast 515 593 37,100  Level FlightAware
07:06AM 41.6120 11.9980 134° Southeast 517 595 37,100  Level FlightAware
07:06AM 41.5580 12.0720 134° Southeast 517 595 37,100  Level FlightAware
07:07AM 41.5000 12.1530 134° Southeast 516 594 37,100  Level FlightAware
07:07AM 41.4480 12.2260 134° Southeast 515 593 37,100  Level FlightAware
07:08AM 41.3870 12.3100 134° Southeast 514 592 37,100  Level FlightAware
07:08AM 41.3280 12.3910 134° Southeast 514 592 37,100  Level FlightAware
07:09AM 41.2690 12.4710 134° Southeast 514 592 37,100  Level FlightAware
07:10AM 41.2070 12.5570 134° Southeast 514 592 37,100  Level FlightAware
07:10AM 41.1540 12.6290 134° Southeast 514 592 37,100  Level FlightAware
07:11AM 41.0990 12.7150 130° Southeast 511 588 37,100  Level FlightAware
07:11AM 41.0640 12.7870 123° Southeast 510 587 37,100  Level FlightAware
07:12AM 41.0150 12.8970 121° Southeast 509 586 37,100  Level FlightAware
07:12AM 40.9750 12.9850 121° Southeast 509 586 37,100  Level FlightAware
07:13AM 40.9340 13.0780 120° Southeast 509 586 37,100  Level FlightAware
07:14AM 40.8910 13.1720 121° Southeast 509 586 37,100  Level FlightAware
07:14AM 40.8460 13.2700 121° Southeast 509 586 37,100  Level FlightAware
07:15AM 40.8050 13.3600 121° Southeast 508 585 37,100  Level FlightAware
07:15AM 40.7590 13.4600 121° Southeast 507 583 37,100  Level FlightAware
07:16AM 40.7160 13.5530 121° Southeast 509 586 37,100  Level FlightAware
07:17AM 40.6720 13.6500 121° Southeast 508 585 37,100  Level FlightAware
07:17AM 40.6320 13.7370 121° Southeast 508 585 37,100  Level FlightAware
07:18AM 40.5930 13.8190 122° Southeast 507 583 37,100  Level FlightAware
07:18AM 40.5460 13.9210 121° Southeast 507 583 37,100  Level FlightAware
07:19AM 40.5010 14.0170 122° Southeast 506 582 37,100  Level FlightAware
07:20AM 40.4580 14.1100 121° Southeast 504 580 37,100  Level FlightAware
07:20AM 40.4190 14.1920 122° Southeast 503 579 37,100  Level FlightAware
07:21AM 40.3750 14.2860 122° Southeast 502 578 37,100  Level FlightAware
07:21AM 40.3330 14.3750 122° Southeast 502 578 37,100  Level FlightAware
07:22AM 40.2920 14.4610 122° Southeast 502 578 37,100  Level FlightAware
07:22AM 40.2480 14.5560 121° Southeast 501 577 37,100  Level FlightAware
07:23AM 40.2020 14.6510 122° Southeast 500 575 37,100  Level FlightAware
07:24AM 40.1580 14.7430 122° Southeast 500 575 37,100  Level FlightAware
07:24AM 40.1140 14.8350 122° Southeast 500 575 37,100  Level FlightAware
07:25AM 40.0800 14.9200 118° Southeast 501 577 37,100  Level FlightAware
07:25AM 40.0460 15.0120 116° Southeast 502 578 37,100  Level FlightAware
07:26AM 40.0080 15.1170 115° Southeast 502 578 37,100  Level FlightAware
07:27AM 39.9730 15.2140 115° Southeast 503 579 37,100  Level FlightAware
07:27AM 39.9410 15.3040 115° Southeast 503 579 37,100  Level FlightAware
07:28AM 39.9050 15.4030 115° Southeast 505 581 37,100  Level FlightAware
07:28AM 39.8690 15.5020 115° Southeast 505 581 37,100  Level FlightAware
07:29AM 39.8340 15.5980 115° Southeast 507 583 37,100  Level FlightAware
07:29AM 39.8030 15.6850 115° Southeast 509 586 37,100  Level FlightAware
07:30AM 39.7650 15.7870 116° Southeast 511 588 37,100  Level FlightAware
07:31AM 39.7290 15.8870 115° Southeast 513 590 37,100  Level FlightAware
07:31AM 39.6940 15.9800 116° Southeast 513 590 37,100  Level FlightAware
07:32AM 39.6590 16.0760 115° Southeast 513 590 37,100  Level FlightAware
07:32AM 39.6250 16.1680 116° Southeast 513 590 37,100  Level FlightAware
07:33AM 39.5840 16.2750 116° Southeast 513 590 37,100  Level FlightAware
07:33AM 39.5520 16.3620 115° Southeast 513 590 37,100  Level FlightAware
07:34AM 39.5160 16.4580 116° Southeast 515 593 37,100  Level FlightAware
07:35AM 39.4760 16.5640 116° Southeast 517 595 37,100  Level FlightAware
07:35AM 39.4460 16.6450 116° Southeast 518 596 37,100  Level FlightAware
07:36AM 39.4010 16.7640 116° Southeast 518 596 37,100  Level FlightAware
07:36AM 39.3670 16.8520 117° Southeast 519 597 37,100  Level FlightAware
07:37AM 39.3300 16.9510 116° Southeast 521 600 37,100  Level FlightAware
07:38AM 39.2950 17.0420 116° Southeast 522 601 37,100  Level FlightAware
07:38AM 39.2480 17.1650 116° Southeast 525 604 37,100  Level FlightAware
07:39AM 39.2060 17.2720 117° Southeast 527 606 37,100  Level FlightAware
07:40AM 39.1670 17.3730 116° Southeast 529 609 37,100  Level FlightAware
07:40AM 39.1310 17.4650 117° Southeast 531 611 37,100  Level FlightAware
07:41AM 39.0940 17.5610 116° Southeast 533 613 37,100  Level FlightAware
07:41AM 39.0520 17.6680 117° Southeast 536 617 37,100  Level FlightAware
07:42AM 39.0140 17.7660 116° Southeast 538 619 37,100  Level FlightAware
07:42AM 38.9740 17.8670 117° Southeast 539 620 37,100  Level FlightAware
07:43AM 38.9370 17.9590 117° Southeast 540 621 37,100  Level FlightAware
07:44AM 38.8970 18.0610 117° Southeast 540 621 37,100  Level FlightAware
07:44AM 38.8580 18.1600 117° Southeast 541 623 37,100  Level FlightAware
07:45AM 38.8170 18.2620 117° Southeast 539 620 37,100  Level FlightAware
07:45AM 38.7780 18.3590 117° Southeast 538 619 37,100  Level FlightAware
07:46AM 38.7370 18.4600 117° Southeast 537 618 37,100  Level FlightAware
07:47AM 38.6940 18.5680 117° Southeast 536 617 37,100  Level FlightAware
07:47AM 38.6580 18.6560 118° Southeast 535 616 37,100  Level FlightAware
07:48AM 38.6180 18.7560 117° Southeast 534 615 37,100  Level FlightAware
07:48AM 38.5800 18.8500 117° Southeast 534 615 37,100  Level FlightAware
07:49AM 38.5490 18.9260 118° Southeast 535 616 37,100  Level FlightAware
07:49AM 38.5090 19.0470 113° Southeast 539 620 37,100  Level FlightAware
07:50AM 38.4840 19.1350 110° East 538 619 37,100  Level FlightAware
07:51AM 38.4520 19.2440 111° Southeast 540 621 37,100  Level FlightAware
07:51AM 38.4210 19.3500 110° East 540 621 37,100  Level FlightAware
07:52AM 38.3880 19.4620 111° Southeast 540 621 37,100  Level FlightAware
07:53AM 38.3480 19.5930 111° Southeast 540 621 37,100  Level FlightAware
07:53AM 38.3110 19.7160 111° Southeast 540 621 37,100  Level FlightAware
07:54AM 38.2750 19.8340 111° Southeast 540 621 37,100  Level FlightAware
07:54AM 38.2430 19.9380 111° Southeast 540 621 37,100  Level FlightAware
07:55AM 38.2070 20.0550 111° Southeast 539 620 37,100  Level FlightAware
07:56AM 38.1770 20.1550 111° Southeast 539 620 37,100  Level FlightAware
07:57AM 38.1280 20.3120 112° Southeast 538 619 37,100  Level FlightAware
07:57AM 38.0960 20.4160 111° Southeast 538 619 37,100  Level FlightAware
07:58AM 38.0660 20.5110 112° Southeast 537 618 37,100  Level FlightAware
07:58AM 38.0370 20.6080 111° Southeast 537 618 37,100  Level FlightAware
07:59AM 38.0030 20.7120 113° Southeast 584 672 37,100  Level FlightAware
07:59AM 37.9700 20.8160 112° Southeast 535 616 37,100  Level FlightAware
08:00AM 37.9250 20.9620 111° Southeast 532 612 37,100  Level FlightAware
08:01AM 37.8830 21.0950 112° Southeast 535 616 37,100  Level FlightAware
08:02AM 37.8410 21.2260 112° Southeast 534 615 37,100  Level FlightAware
08:02AM 37.8030 21.3410 113° Southeast 530 610 37,100  Level FlightAware
08:03AM 37.7710 21.4460 111° Southeast 530 610 37,100  Level FlightAware
08:04AM 37.7370 21.5460 113° Southeast 533 613 37,100  Level FlightAware
08:04AM 37.7090 21.6340 112° Southeast 533 613 37,100  Level FlightAware
08:05AM 37.6810 21.7230 112° Southeast 533 613 37,100  Level FlightAware
08:05AM 37.6530 21.8110 112° Southeast 533 613 37,100  Level FlightAware
08:06AM 37.6240 21.9020 112° Southeast 533 613 37,100 1,620 Level FlightAware
08:07AM 37.5710 22.0570 113° Southeast 530 610 39,100 1,260 Climbing FlightAware
08:08AM 37.5170 22.2240 112° Southeast 527 606 39,100  Level FlightAware
08:08AM 37.4900 22.3120 111° Southeast 527 606 39,100  Level FlightAware
08:09AM 37.4390 22.4520 115° Southeast 525 604 39,100  Level FlightAware
08:09AM 37.4130 22.5320 112° Southeast 523 602 39,100  Level FlightAware
08:10AM 37.3800 22.6310 113° Southeast 520 598 39,100  Level FlightAware
08:11AM 37.3460 22.7320 113° Southeast 518 596 39,100  Level FlightAware
08:11AM 37.3150 22.8240 113° Southeast 516 594 39,100  Level FlightAware
08:12AM 37.2840 22.9140 113° Southeast 516 594 39,100  Level FlightAware
08:12AM 37.2400 23.0430 113° Southeast 515 593 39,100 -120 Level FlightAware
08:13AM 37.2100 23.1300 113° Southeast 516 594 39,000 -120 Descending FlightAware
08:14AM 37.1750 23.2320 113° Southeast 516 594 39,000 60 Level FlightAware
08:14AM 37.1390 23.3360 113° Southeast 517 595 39,100 60 Climbing FlightAware
08:15AM 37.1080 23.4280 113° Southeast 518 596 39,100  Level FlightAware
08:15AM 37.0730 23.5300 113° Southeast 520 598 39,100  Level FlightAware
08:16AM 37.0410 23.6220 114° Southeast 520 598 39,100  Level FlightAware
08:17AM 37.0040 23.7270 114° Southeast 520 598 39,100  Level FlightAware
08:17AM 36.9730 23.8170 113° Southeast 521 600 39,100  Level FlightAware
08:18AM 36.9390 23.9150 113° Southeast 522 601 39,100  Level FlightAware
08:18AM 36.9040 24.0140 114° Southeast 523 602 39,100  Level FlightAware
08:19AM 36.8730 24.1030 114° Southeast 523 602 39,100  Level FlightAware
08:19AM 36.8370 24.2040 114° Southeast 522 601 39,100  Level FlightAware
08:20AM 36.8030 24.3010 114° Southeast 522 601 39,100  Level FlightAware
08:21AM 36.7670 24.4010 114° Southeast 522 601 39,100  Level FlightAware
08:21AM 36.7340 24.4940 114° Southeast 522 601 39,100  Level FlightAware
08:22AM 36.6980 24.5940 114° Southeast 523 602 39,100  Level FlightAware
08:22AM 36.6630 24.6910 114° Southeast 524 603 39,100  Level FlightAware
08:23AM 36.6310 24.7800 114° Southeast 524 603 39,100  Level FlightAware
08:23AM 36.5970 24.8760 114° Southeast 525 604 39,100  Level FlightAware
08:24AM 36.5620 24.9720 114° Southeast 525 604 39,100  Level FlightAware
08:25AM 36.5250 25.0730 114° Southeast 525 604 39,100  Level FlightAware
08:25AM 36.4890 25.1720 114° Southeast 525 604 39,100  Level FlightAware
08:26AM 36.4540 25.2660 115° Southeast 524 603 39,100  Level FlightAware
08:26AM 36.4180 25.3640 115° Southeast 525 604 39,100  Level FlightAware
08:27AM 36.3820 25.4630 114° Southeast 525 604 39,100  Level FlightAware
08:28AM 36.3420 25.5720 114° Southeast 525 604 39,100  Level FlightAware
08:28AM 36.3140 25.6480 115° Southeast 525 604 39,100  Level FlightAware
08:29AM 36.2760 25.7480 115° Southeast 525 604 39,100  Level FlightAware
08:29AM 36.2420 25.8390 115° Southeast 524 603 39,100  Level FlightAware
08:30AM 36.2100 25.9270 114° Southeast 525 604 39,100  Level FlightAware
08:30AM 36.1730 26.0250 115° Southeast 525 604 39,100  Level FlightAware
08:31AM 36.1360 26.1230 115° Southeast 525 604 39,100 -120 Level FlightAware
08:32AM 36.1000 26.2170 115° Southeast 526 605 39,000 -120 Descending FlightAware
08:32AM 36.0620 26.3190 115° Southeast 525 604 39,000 60 Level FlightAware
08:33AM 36.0290 26.4050 115° Southeast 524 603 39,100 60 Climbing FlightAware
08:33AM 35.9920 26.5010 115° Southeast 522 601 39,100  Level FlightAware
08:34AM 35.9550 26.5990 115° Southeast 522 601 39,100  Level FlightAware
08:35AM 35.9180 26.6960 115° Southeast 520 598 39,100  Level FlightAware
08:35AM 35.8850 26.7830 115° Southeast 520 598 39,100  Level FlightAware
08:36AM 35.8580 26.8530 115° Southeast 520 598 39,100  Level FlightAware
08:37AM 35.7990 27.0040 116° Southeast 514 592 39,100  Level FlightAware
08:37AM 35.7660 27.0950 114° Southeast 514 592 39,100  Level FlightAware
08:38AM 35.7370 27.1770 114° Southeast 514 592 39,100  Level FlightAware
08:38AM 35.7070 27.2580 114° Southeast 514 592 39,100  Level FlightAware
08:39AM 35.6780 27.3400 114° Southeast 514 592 39,100  Level FlightAware
08:40AM 35.6480 27.4220 114° Southeast 514 592 39,100  Level FlightAware
08:40AM 35.6180 27.5060 114° Southeast 514 592 39,100  Level FlightAware
08:41AM 35.5880 27.5880 114° Southeast 514 592 39,100  Level FlightAware
08:41AM 35.5600 27.6650 114° Southeast 514 592 39,100  Level FlightAware
08:42AM 35.5300 27.7490 114° Southeast 514 592 39,100  Level FlightAware
08:43AM 35.4250 27.9550 122° Southeast 512 589 39,100  Level FlightAware
08:43AM 35.3710 28.0910 116° Southeast 512 589 39,100  Level FlightAware
08:44AM 35.3310 28.1900 116° Southeast 512 589 39,100  Level FlightAware
08:45AM 35.2970 28.2760 116° Southeast 512 589 39,100  Level FlightAware
08:45AM 35.2590 28.3690 117° Southeast 511 588 39,100  Level FlightAware
08:46AM 35.2250 28.4520 117° Southeast 511 588 39,100  Level FlightAware
08:46AM 35.1870 28.5470 116° Southeast 511 588 39,100  Level FlightAware
08:47AM 35.1430 28.6540 117° Southeast 511 588 39,100  Level FlightAware
08:48AM 35.1060 28.7460 116° Southeast 511 588 39,100  Level FlightAware
08:49AM 35.0520 28.8790 116° Southeast 511 588 39,100 -60 Level FlightAware
08:49AM 34.9910 29.0270 117° Southeast 511 588 39,000 -120 Descending FlightAware
08:50AM 34.9560 29.1130 116° Southeast 511 588 39,000  Level FlightAware
08:51AM 34.9240 29.1940 116° Southeast 511 588 39,000  Level FlightAware
08:51AM 34.8920 29.2730 116° Southeast 511 588 39,000  Level FlightAware
08:52AM 34.8330 29.4070 118° Southeast 39,000  Level FlightAware
08:52AM 34.7960 29.4960 117° Southeast 506 582 39,000 60 Level FlightAware
08:53AM 34.7460 29.6140 117° Southeast 507 583 39,100 60 Climbing FlightAware
08:54AM 34.7140 29.6920 117° Southeast 508 585 39,100  Level FlightAware
08:54AM 34.6780 29.7760 118° Southeast 508 585 39,100  Level FlightAware
08:55AM 34.6340 29.8810 117° Southeast 507 583 39,100  Level FlightAware
08:56AM 34.6080 29.9460 116° Southeast 507 583 39,100  Level FlightAware
08:56AM 34.5490 30.0600 122° Southeast 509 586 39,100  Level FlightAware
08:57AM 34.5130 30.1360 120° Southeast 509 586 39,100  Level FlightAware
08:57AM 34.4650 30.2350 120° Southeast 505 581 39,100  Level FlightAware
08:58AM 34.4230 30.3230 120° Southeast 505 581 39,100  Level FlightAware
08:59AM 34.3790 30.4140 120° Southeast 505 581 39,100  Level FlightAware
08:59AM 34.3450 30.4850 120° Southeast 509 586 39,100  Level FlightAware
09:00AM 34.2960 30.5880 120° Southeast 509 586 39,100  Level FlightAware
09:00AM 34.2560 30.6710 120° Southeast 509 586 39,100  Level FlightAware
09:01AM 34.2160 30.7530 121° Southeast 510 587 39,100  Level FlightAware
09:02AM 34.1730 30.8430 120° Southeast 510 587 39,100  Level FlightAware
09:02AM 34.1300 30.9310 121° Southeast 510 587 39,100  Level FlightAware
09:03AM 34.0920 31.0090 120° Southeast 510 587 39,100  Level FlightAware
09:03AM 34.0330 31.1280 121° Southeast 511 588 39,100  Level FlightAware
09:04AM 33.9990 31.1980 120° Southeast 510 587 39,100  Level FlightAware
09:05AM 33.9500 31.2990 120° Southeast 511 588 39,100  Level FlightAware
09:05AM 33.9170 31.3650 121° Southeast 511 588 39,100  Level FlightAware
09:06AM 33.8710 31.4580 121° Southeast 511 588 39,100  Level FlightAware
09:06AM 33.8230 31.5550 121° Southeast 511 588 39,100  Level FlightAware
09:07AM 33.7870 31.6270 121° Southeast 511 588 39,100 -120 Level FlightAware
09:07AM 33.7440 31.7150 120° Southeast 512 589 39,000  Descending FlightAware
09:08AM 33.6900 31.8230 121° Southeast 510 587 39,100 60 Climbing FlightAware
09:09AM 33.6400 31.9240 121° Southeast 510 587 39,100  Level FlightAware
09:09AM 33.5970 32.0080 122° Southeast 508 585 39,100 -120 Level FlightAware
09:10AM 33.5580 32.0870 121° Southeast 507 583 39,000  Descending FlightAware
09:11AM 33.5220 32.1590 121° Southeast 507 583 39,100 60 Climbing FlightAware
09:11AM 33.4780 32.2460 121° Southeast 506 582 39,100  Level FlightAware
09:12AM 33.4200 32.3590 122° Southeast 505 581 39,100  Level FlightAware
09:13AM 33.3610 32.4760 121° Southeast 504 580 39,100 -120 Level FlightAware
09:13AM 33.3210 32.5560 121° Southeast 505 581 39,000 -660 Descending FlightAware
09:14AM 33.2810 32.6340 122° Southeast 508 585 38,300 -1,800 Descending FlightAware
09:15AM 33.2060 32.7810 121° Southeast 517 595 36,500 -2,040 Descending FlightAware
09:16AM 33.1420 32.9060 121° Southeast 502 578 34,700 -2,160 Descending FlightAware
09:17AM 33.0830 33.0190 122° Southeast 496 571 32,900 -2,340 Descending FlightAware
09:17AM 33.0330 33.1170 121° Southeast 482 555 31,300 -1,560 Descending FlightAware
09:18AM 32.9880 33.2040 122° Southeast 479 551 30,700 -480 Descending FlightAware
09:19AM 32.9530 33.2730 121° Southeast 479 551 30,700 -3,420 Level FlightAware
09:19AM 32.9040 33.3640 123° Southeast 457 526 26,900 -4,560 Descending FlightAware
09:20AM 32.8600 33.4480 122° Southeast 449 517 25,400 -2,340 Descending FlightAware
09:20AM 32.8220 33.5220 121° Southeast 441 507 24,000 -2,400 Descending FlightAware
09:21AM 32.7890 33.5850 122° Southeast 434 499 22,800 -2,400 Descending FlightAware
09:21AM 32.7510 33.6580 122° Southeast 428 493 21,400 -2,340 Descending FlightAware
09:22AM 32.7140 33.7280 122° Southeast 422 486 20,000 -2,340 Descending FlightAware
09:23AM 32.6680 33.8150 122° Southeast 413 475 18,300 -2,340 Descending FlightAware
09:23AM 32.6320 33.8840 122° Southeast 406 467 16,900 -2,280 Descending FlightAware
09:24AM 32.5990 33.9470 122° Southeast 400 460 15,700 -2,220 Descending FlightAware
09:25AM 32.5630 34.0130 123° Southeast 392 451 14,400 -2,280 Descending FlightAware
09:25AM 32.5380 34.0600 122° Southeast 385 443 13,400 -2,220 Descending FlightAware
09:26AM 32.4990 34.1340 122° Southeast 378 435 11,900 -2,100 Descending FlightAware
09:26AM 32.4600 34.1910 129° Southeast 368 423 10,700 -1,260 Descending FlightAware
09:27AM 32.4130 34.2470 135° Southeast 334 384 10,300 -420 Descending FlightAware
09:28AM 32.3720 34.2940 136° Southeast 292 336 10,200 -360 Descending FlightAware
09:28AM 32.3410 34.3310 135° Southeast 292 336 9,900 -300 Descending FlightAware
09:29AM 32.3210 34.3540 136° Southeast 292 336 9,900  Level FlightAware
09:29AM 32.3020 34.3770 134° Southeast 292 336 9,900  Level FlightAware
09:29AM 32.2820 34.4000 136° Southeast 292 336 9,900  Level FlightAware
09:32AM 32.0935 34.6830 125° Southeast  Level FlightAware Approximate
09:33AM 32.0199 34.8335 125° Southeast  Level FlightAware Approximate
09:34AM 32.0000 34.8667 125° Southeast  Level FlightAware Approximate
09:35AM 32.0095 34.8769 125° Southeast  Level Estimated
09:36AM 32.0095 34.8769 125° Southeast  Level Estimated
09:37AM 32.0095 34.8769 125° Southeast  Level Estimated
09:38AM 32.0095 34.8769 125° Southeast  Level Estimated
09:39AM 32.0095 34.8769 125° Southeast  Level Estimated
09:40AM 32.0095 34.8769 125° Southeast  Level Estimated
09:41AM 32.0095 34.8769 125° Southeast  Level Estimated
09:42AM 32.0095 34.8769 125° Southeast  Level Estimated